Time;durP1;ratioP1;P1;durP2;ratioP2;P2;SDS_P1;SDS_P2;PMS_P1;PMS_P2;Temp;Humidity;BMP_temperature;BMP_pressure;BME280_temperature;BME280_humidity;BME280_pressure;Samples;Min_cycle;Max_cycle;Signal;HPM_P1;HPM_P2
2021/01/04 00:02:37;;;;;;;3.05;2.15;;;;;;;18.06;49.34;101867.16;5051870;28;20029;-74
2021/01/04 00:05:23;;;;;;;3.40;1.52;;;;;;;18.06;48.99;101872.38;5051765;28;20056;-73
2021/01/04 00:08:08;;;;;;;3.47;1.92;;;;;;;18.02;49.23;101863.63;5050404;28;20035;-73
2021/01/04 00:10:58;;;;;;;3.20;1.83;;;;;;;18.06;49.14;101865.41;5046732;28;20102;-73
2021/01/04 00:13:37;;;;;;;3.05;2.05;;;;;;;18.03;49.42;101862.78;5052071;28;20020;-73
2021/01/04 00:16:48;;;;;;;3.75;1.60;;;;;;;18.01;49.15;101854.03;5052053;28;20072;-73
2021/01/04 00:19:24;;;;;;;3.08;1.50;;;;;;;18.03;49.32;101860.16;5049591;28;20498;-73
2021/01/04 00:22:09;;;;;;;2.65;1.55;;;;;;;18.03;49.21;101864.53;5052401;28;20087;-72
2021/01/04 00:24:49;;;;;;;3.13;1.83;;;;;;;18.01;49.29;101859.25;5039963;28;20021;-71
2021/01/04 00:27:29;;;;;;;2.83;1.67;;;;;;;17.97;48.98;101852.22;5051197;28;20036;-71
2021/01/04 00:30:00;;;;;;;2.58;1.60;;;;;;;18.02;49.26;101866.25;5052508;28;20029;-71
2021/01/04 00:32:33;;;;;;;1.95;1.45;;;;;;;18.00;49.22;101864.47;5050759;28;20025;-71
2021/01/04 00:34:59;;;;;;;;;;;;;;;18.00;49.02;101860.13;5072857;28;20101;-71
2021/01/04 00:37:25;;;;;;;4.22;1.83;;;;;;;18.00;48.94;101860.13;5052469;28;19905;-71
2021/01/04 00:40:08;;;;;;;2.50;1.80;;;;;;;17.98;49.38;101848.75;5047572;28;20036;-72
2021/01/04 00:42:42;;;;;;;2.42;1.77;;;;;;;17.97;49.23;101854.84;5051672;28;20437;-71
2021/01/04 00:45:27;;;;;;;3.42;1.73;;;;;;;17.95;49.36;101848.69;5050552;28;20537;-71
2021/01/04 00:48:09;;;;;;;2.78;1.55;;;;;;;17.98;49.03;101850.47;5052330;28;20036;-71
2021/01/04 00:50:47;;;;;;;1.80;1.30;;;;;;;17.97;49.37;101849.59;5050963;28;20021;-72
2021/01/04 00:53:33;;;;;;;2.03;1.38;;;;;;;17.96;49.20;101842.59;5050079;28;20061;-72
2021/01/04 00:56:23;;;;;;;2.78;1.50;;;;;;;17.95;48.85;101845.19;5044296;28;20487;-71
2021/01/04 00:58:57;;;;;;;3.22;1.55;;;;;;;17.96;49.31;101852.19;5049711;28;20391;-72
2021/01/04 01:01:33;;;;;;;2.08;1.48;;;;;;;17.94;49.30;101849.56;5029734;28;20057;-71
2021/01/04 01:04:07;;;;;;;2.50;1.90;;;;;;;17.91;49.40;101846.03;5014910;28;20068;-71
2021/01/04 01:06:39;;;;;;;3.03;1.65;;;;;;;17.91;49.34;101838.19;5025943;28;20022;-72
2021/01/04 01:09:08;;;;;;;1.77;1.20;;;;;;;17.92;48.98;101848.66;5025350;28;20029;-72
2021/01/04 01:11:52;;;;;;;2.35;1.40;;;;;;;17.91;49.14;101848.66;5010817;28;20059;-71
2021/01/04 01:14:55;;;;;;;3.42;1.98;;;;;;;17.90;49.15;101845.16;5013453;28;20040;-71
2021/01/04 01:17:57;;;;;;;1.98;1.40;;;;;;;17.91;49.04;101848.66;5031693;28;20028;-71
2021/01/04 01:20:23;;;;;;;1.98;1.40;;;;;;;17.91;48.94;101843.41;5021384;28;20029;-71
2021/01/04 01:22:49;;;;;;;2.20;1.60;;;;;;;17.91;49.19;101849.53;5016779;28;20038;-71
2021/01/04 01:25:24;;;;;;;2.53;1.55;;;;;;;17.87;48.76;101847.72;5016228;28;20033;-72
2021/01/04 01:28:11;;;;;;;2.97;1.58;;;;;;;17.88;49.05;101844.25;5031891;28;20484;-71
2021/01/04 01:30:54;;;;;;;1.88;1.27;;;;;;;17.88;49.03;101846.00;5030642;28;20365;-71
2021/01/04 01:33:41;;;;;;;2.83;2.03;;;;;;;17.88;49.16;101851.22;5030131;28;20155;-72
2021/01/04 01:36:20;;;;;;;2.47;1.60;;;;;;;17.87;49.17;101839.00;5039955;28;20075;-71
2021/01/04 01:39:02;;;;;;;3.40;1.80;;;;;;;17.87;48.98;101839.00;5012132;28;20029;-72
2021/01/04 01:42:04;;;;;;;2.33;1.88;;;;;;;17.86;49.03;101853.81;5019271;28;20057;-70
2021/01/04 01:44:41;;;;;;;2.83;1.50;;;;;;;17.84;48.94;101850.28;5029585;28;20021;-71
2021/01/04 01:47:14;;;;;;;3.20;1.55;;;;;;;17.85;48.89;101846.81;5036810;28;20021;-70
2021/01/04 01:50:23;;;;;;;1.98;1.52;;;;;;;17.84;48.93;101858.16;5035453;28;20036;-70
2021/01/04 01:52:57;;;;;;;2.92;1.58;;;;;;;17.84;49.04;101850.28;5031889;28;20044;-72
2021/01/04 01:55:47;;;;;;;1.92;1.30;;;;;;;17.82;48.94;101845.03;5035176;28;20057;-72
2021/01/04 01:58:24;;;;;;;1.88;1.15;;;;;;;17.82;48.84;101858.13;5035181;28;20026;-71
2021/01/04 02:00:55;;;;;;;1.73;1.33;;;;;;;17.81;49.17;101850.25;5032691;28;20503;-71
2021/01/04 02:03:48;;;;;;;2.00;1.55;;;;;;;17.80;48.87;101859.81;5034271;28;20041;-71
2021/01/04 02:06:56;;;;;;;1.73;1.30;;;;;;;17.82;48.91;101852.00;5014805;28;20076;-72
2021/01/04 02:09:42;;;;;;;2.70;1.42;;;;;;;17.76;48.80;101844.09;5032438;28;20029;-72
2021/01/04 02:12:21;;;;;;;2.70;1.73;;;;;;;17.76;48.74;101844.97;5029308;28;20113;-72
2021/01/04 02:14:58;;;;;;;1.80;1.20;;;;;;;17.81;48.99;101845.88;5036968;28;20040;-72
2021/01/04 02:17:41;;;;;;;2.38;1.52;;;;;;;17.79;49.04;101858.06;5030779;28;20025;-71
2021/01/04 02:20:16;;;;;;;1.92;1.30;;;;;;;17.78;48.96;101845.00;5014470;28;20111;-68
2021/01/04 02:23:10;;;;;;;1.90;1.30;;;;;;;17.78;48.83;101851.09;5034077;28;20069;-70
2021/01/04 02:25:39;;;;;;;2.35;1.25;;;;;;;17.76;48.44;101844.97;5033438;28;20021;-69
2021/01/04 02:28:12;;;;;;;2.25;1.35;;;;;;;17.78;48.76;101856.34;5043939;28;20026;-69
2021/01/04 02:30:37;;;;;;;2.22;1.25;;;;;;;17.79;49.00;101846.72;5033448;28;20021;-69
2021/01/04 02:33:05;;;;;;;1.85;1.40;;;;;;;17.76;48.85;101838.84;5021916;28;20038;-68
2021/01/04 02:35:31;;;;;;;1.60;1.30;;;;;;;17.73;48.99;101836.19;5036926;28;20163;-69
2021/01/04 02:37:56;;;;;;;2.47;1.60;;;;;;;17.73;49.05;101844.03;5023847;28;20498;-68
2021/01/04 02:40:22;;;;;;;2.15;1.40;;;;;;;17.75;48.62;101845.81;5019017;28;20034;-69
2021/01/04 02:42:49;;;;;;;2.40;1.70;;;;;;;17.75;49.02;101847.56;5001421;28;20033;-68
2021/01/04 02:45:19;;;;;;;1.73;1.15;;;;;;;17.73;48.92;101844.91;5005236;28;20526;-69
2021/01/04 02:47:50;;;;;;;3.30;1.50;;;;;;;17.72;48.93;101845.78;5034377;28;20029;-68
2021/01/04 02:50:23;;;;;;;1.85;1.55;;;;;;;17.71;48.88;101846.63;5032823;28;20132;-68
2021/01/04 02:53:18;;;;;;;2.20;1.30;;;;;;;17.74;48.92;101849.28;5030110;28;20029;-68
2021/01/04 02:56:05;;;;;;;1.63;1.00;;;;;;;17.71;49.11;101837.91;5017720;28;20490;-68
2021/01/04 02:58:55;;;;;;;1.65;1.30;;;;;;;17.70;49.15;101847.47;5018738;28;20040;-68
2021/01/04 03:01:29;;;;;;;2.05;1.35;;;;;;;17.69;48.68;101835.25;5014396;28;20149;-68
2021/01/04 03:03:54;;;;;;;1.80;1.60;;;;;;;17.70;49.23;101850.09;5014951;28;20068;-69
2021/01/04 03:06:37;;;;;;;1.70;1.38;;;;;;;17.70;49.28;101843.97;5033482;28;20432;-68
2021/01/04 03:09:07;;;;;;;1.83;1.30;;;;;;;17.68;49.09;101843.97;5030478;28;20518;-68
2021/01/04 03:11:33;;;;;;;1.83;1.25;;;;;;;17.69;49.04;101847.47;5031627;28;20779;-69
2021/01/04 03:14:09;;;;;;;2.28;1.58;;;;;;;17.69;48.96;101842.22;5029242;28;20037;-69
2021/01/04 03:16:46;;;;;;;1.83;1.38;;;;;;;17.68;48.84;101843.06;5017682;28;20028;-68
2021/01/04 03:19:16;;;;;;;1.92;1.30;;;;;;;17.68;48.64;101848.31;5022794;28;20029;-69
2021/01/04 03:21:42;;;;;;;2.15;1.58;;;;;;;17.68;48.79;101845.69;5033958;28;20029;-69
2021/01/04 03:24:11;;;;;;;2.47;1.02;;;;;;;17.66;48.78;101836.94;5018573;28;20392;-68
2021/01/04 03:26:50;;;;;;;2.00;1.48;;;;;;;17.67;48.87;101839.59;5014780;28;20025;-68
2021/01/04 03:29:15;;;;;;;2.10;1.30;;;;;;;17.66;48.42;101835.22;5031583;28;20530;-68
2021/01/04 03:31:40;;;;;;;1.98;1.48;;;;;;;17.65;48.82;101830.88;5032477;28;20052;-68
2021/01/04 03:34:06;;;;;;;3.47;1.88;;;;;;;17.62;48.61;101835.13;5020277;28;20087;-68
2021/01/04 03:36:31;;;;;;;3.20;2.00;;;;;;;17.63;48.80;101837.81;4999398;28;20384;-69
2021/01/04 03:38:56;;;;;;;1.73;1.45;;;;;;;17.66;48.89;101836.94;5031406;28;20044;-68
2021/01/04 03:41:22;;;;;;;1.33;0.98;;;;;;;17.64;48.95;101842.19;5030050;28;20044;-68
2021/01/04 03:43:47;;;;;;;1.77;1.15;;;;;;;17.63;48.80;101829.97;5031546;28;20040;-69
2021/01/04 03:46:12;;;;;;;1.08;0.82;;;;;;;17.61;48.86;101841.22;5033479;28;20037;-68
2021/01/04 03:48:38;;;;;;;2.25;1.30;;;;;;;17.59;48.79;101824.63;5013317;28;20033;-68
2021/01/04 03:51:04;;;;;;;2.33;1.40;;;;;;;17.60;48.62;101829.00;5019666;28;20083;-68
2021/01/04 03:53:29;;;;;;;1.98;1.50;;;;;;;17.60;48.77;101835.09;5023242;28;20037;-68
2021/01/04 03:55:55;;;;;;;1.98;1.30;;;;;;;17.62;48.86;101837.75;5015244;28;20044;-68
2021/01/04 03:58:20;;;;;;;2.15;1.40;;;;;;;17.58;48.76;101835.94;5021961;28;20057;-68
2021/01/04 04:00:46;;;;;;;2.00;1.30;;;;;;;17.60;48.53;101837.72;5043028;28;20041;-69
2021/01/04 04:03:11;;;;;;;2.47;1.33;;;;;;;17.61;48.54;101835.97;5053279;28;20446;-69
2021/01/04 04:05:36;;;;;;;1.92;1.13;;;;;;;17.59;48.74;101832.47;5031956;28;20514;-68
2021/01/04 04:08:03;;;;;;;1.80;1.30;;;;;;;17.58;48.32;101836.81;5032965;28;20071;-68
2021/01/04 04:10:28;;;;;;;2.55;1.40;;;;;;;17.61;48.41;101838.59;5051214;28;20064;-68
2021/01/04 04:12:55;;;;;;;2.20;1.38;;;;;;;17.60;48.47;101837.72;5052137;28;20059;-68
2021/01/04 04:15:21;;;;;;;1.48;1.10;;;;;;;17.59;48.61;101838.56;5049544;28;20025;-68
2021/01/04 04:17:47;;;;;;;3.00;1.60;;;;;;;17.59;48.79;101838.56;5050963;28;20149;-68
2021/01/04 04:20:17;;;;;;;2.08;1.52;;;;;;;17.57;48.33;101835.06;5048561;28;20133;-68
2021/01/04 04:22:43;;;;;;;3.45;1.83;;;;;;;17.61;48.44;101843.81;5051231;28;20024;-68
2021/01/04 04:25:09;;;;;;;2.95;1.80;;;;;;;17.59;48.55;101843.81;5048498;28;20040;-67
2021/01/04 04:27:35;;;;;;;2.20;1.50;;;;;;;17.58;48.79;101841.16;5049802;28;20054;-68
2021/01/04 04:30:03;;;;;;;1.33;1.00;;;;;;;17.54;48.29;101837.63;5047672;28;20032;-68
2021/01/04 04:32:28;;;;;;;2.72;1.70;;;;;;;17.56;48.36;101848.09;5031416;28;20094;-68
2021/01/04 04:34:54;;;;;;;1.75;1.55;;;;;;;17.52;48.49;101841.97;5051415;28;20020;-68
2021/01/04 04:37:19;;;;;;;1.88;1.15;;;;;;;17.55;48.83;101844.59;5050026;28;20051;-68
2021/01/04 04:39:44;;;;;;;1.60;1.13;;;;;;;17.53;48.47;101843.69;5030158;28;20116;-68
2021/01/04 04:42:13;;;;;;;2.05;1.40;;;;;;;17.54;48.44;101839.34;5047828;28;20116;-68
2021/01/04 04:44:45;;;;;;;1.30;1.00;;;;;;;17.58;48.42;101849.88;5051017;28;20116;-68
2021/01/04 04:47:41;;;;;;;3.20;2.05;;;;;;;17.57;48.43;101852.47;5050228;28;20055;-68
2021/01/04 04:50:29;;;;;;;2.65;1.83;;;;;;;17.56;48.68;101850.72;5051166;28;20021;-68
2021/01/04 04:53:13;;;;;;;2.88;2.15;;;;;;;17.54;48.70;101860.28;5049128;28;20028;-68
2021/01/04 04:56:10;;;;;;;2.40;1.70;;;;;;;17.51;48.39;101855.91;5048280;28;20030;-68
2021/01/04 04:58:55;;;;;;;2.75;1.40;;;;;;;17.52;48.70;101851.56;5044411;28;20044;-68
2021/01/04 05:01:37;;;;;;;1.73;1.30;;;;;;;17.52;48.50;101852.44;5047850;28;20486;-68
2021/01/04 05:04:20;;;;;;;1.88;1.13;;;;;;;17.50;48.44;101854.13;5056074;28;20459;-68
2021/01/04 05:07:20;;;;;;;2.53;1.50;;;;;;;17.49;48.65;101853.25;5054341;28;20057;-68
2021/01/04 05:09:51;;;;;;;1.95;1.45;;;;;;;17.49;48.66;101861.09;4997104;28;20045;-68
2021/01/04 05:12:17;;;;;;;1.92;1.23;;;;;;;17.50;48.11;101854.13;5043632;28;20438;-68
2021/01/04 05:15:06;;;;;;;1.50;1.00;;;;;;;17.48;48.67;101858.47;5050668;28;20100;-68
2021/01/04 05:17:52;;;;;;;1.95;1.33;;;;;;;17.50;48.40;101860.25;5046531;28;20024;-68
2021/01/04 05:20:30;;;;;;;2.65;1.30;;;;;;;17.49;48.53;101866.34;5049826;28;20113;-68
2021/01/04 05:23:26;;;;;;;2.00;1.20;;;;;;;17.49;48.53;101863.72;5061260;28;20035;-68
2021/01/04 05:25:54;;;;;;;2.58;1.50;;;;;;;17.50;48.21;101864.59;5055173;28;20021;-72
2021/01/04 05:28:50;;;;;;;2.28;1.35;;;;;;;17.49;48.51;101865.44;5055586;28;20468;-69
2021/01/04 05:31:53;;;;;;;4.22;1.85;;;;;;;17.47;48.20;101861.94;5053852;28;20026;-72
2021/01/04 05:34:45;;;;;;;2.03;1.48;;;;;;;17.52;48.16;101872.47;5057344;28;20053;-69
2021/01/04 05:37:37;;;;;;;2.70;1.48;;;;;;;17.56;48.18;101869.03;5053926;28;20478;-69
2021/01/04 05:40:20;;;;;;;2.85;1.75;;;;;;;17.71;47.97;101864.94;5054982;28;20036;-68
2021/01/04 05:43:13;;;;;;;1.88;1.20;;;;;;;17.83;47.60;101869.47;5047857;28;20022;-68
2021/01/04 05:46:02;;;;;;;1.70;1.30;;;;;;;17.83;47.72;101867.72;5052123;28;20395;-74
2021/01/04 05:48:56;;;;;;;2.22;1.50;;;;;;;17.95;47.42;101868.75;5055913;28;20479;-69
2021/01/04 05:51:33;;;;;;;6.27;1.43;;;;;;;18.08;47.23;101868.06;5054631;28;20025;-67
2021/01/04 05:53:58;;;;;;;2.30;1.30;;;;;;;18.02;47.45;101866.25;5052829;28;20286;-68
2021/01/04 05:56:27;;;;;;;3.10;1.08;;;;;;;17.94;47.52;101875.72;5034993;28;20037;-68
2021/01/04 05:59:05;;;;;;;2.88;1.60;;;;;;;17.89;47.74;101871.31;5051168;28;20109;-68
2021/01/04 06:01:31;;;;;;;2.72;1.45;;;;;;;17.98;47.48;101868.81;5033690;28;20029;-68
2021/01/04 06:04:02;;;;;;;3.20;1.20;;;;;;;17.98;47.67;101869.69;5016865;28;20044;-68
2021/01/04 06:06:53;;;;;;;6.72;1.42;;;;;;;17.93;47.71;101865.22;5025668;28;20029;-68
2021/01/04 06:09:19;;;;;;;2.72;1.50;;;;;;;17.96;47.68;101867.91;5017547;28;20036;-68
2021/01/04 06:11:57;;;;;;;4.18;2.10;;;;;;;18.06;47.43;101872.38;5010949;28;20116;-68
2021/01/04 06:14:25;;;;;;;4.72;1.75;;;;;;;18.05;47.87;101868.00;5035825;28;20097;-68
2021/01/04 06:17:03;;;;;;;4.82;2.38;;;;;;;18.05;47.70;101881.97;5016258;28;20040;-67
2021/01/04 06:19:39;;;;;;;7.20;3.10;;;;;;;18.09;47.92;101883.78;5034041;28;20452;-68
2021/01/04 06:22:09;;;;;;;12.40;3.95;;;;;;;18.09;47.95;101875.06;5013517;28;20037;-68
2021/01/04 06:24:36;;;;;;;9.35;3.72;;;;;;;18.04;48.44;101885.47;5035160;28;20037;-71
2021/01/04 06:27:32;;;;;;;7.78;3.28;;;;;;;18.08;48.34;101879.41;5015823;28;20033;-71
2021/01/04 06:30:12;;;;;;;6.43;2.60;;;;;;;18.11;48.42;101879.47;5035493;28;20056;-69
2021/01/04 06:32:38;;;;;;;7.28;3.10;;;;;;;18.11;48.47;101881.19;5033044;28;20108;-69
2021/01/04 06:35:19;;;;;;;4.95;2.38;;;;;;;18.08;48.50;101878.53;5016723;28;20060;-69
2021/01/04 06:37:45;;;;;;;11.95;3.38;;;;;;;18.12;48.48;101893.44;5039521;28;20025;-70
2021/01/04 06:40:34;;;;;;;9.40;3.47;;;;;;;18.07;48.66;101895.09;5020677;28;20037;-69
2021/01/04 06:43:30;;;;;;;12.63;3.22;;;;;;;18.07;48.68;101895.09;5010412;28;20099;-70
2021/01/04 06:46:26;;;;;;;7.72;3.22;;;;;;;18.12;48.47;101883.84;5017614;28;20361;-69
2021/01/04 06:49:25;;;;;;;8.50;3.95;;;;;;;18.09;48.71;101901.22;5024981;28;20040;-69
2021/01/04 06:52:15;;;;;;;5.82;2.20;;;;;;;18.11;48.68;101903.00;5026294;28;20029;-69
2021/01/04 06:55:19;;;;;;;11.27;3.80;;;;;;;18.13;48.24;101906.53;5031579;28;20492;-73
2021/01/04 06:58:21;;;;;;;4.05;2.28;;;;;;;18.07;48.68;101911.66;5028725;28;20055;-74
2021/01/04 07:00:49;;;;;;;17.67;4.53;;;;;;;18.12;48.66;101899.53;5052405;28;20037;-74
2021/01/04 07:03:36;;;;;;;3.15;2.13;;;;;;;18.13;48.63;101903.91;5055381;28;20021;-73
2021/01/04 07:06:07;;;;;;;4.93;2.65;;;;;;;18.11;48.39;101907.38;5055522;28;20036;-74
2021/01/04 07:09:02;;;;;;;9.50;2.75;;;;;;;18.16;48.64;101910.94;5048277;28;20029;-73
2021/01/04 07:11:39;;;;;;;9.20;3.47;;;;;;;18.13;48.43;101913.50;5045458;28;20071;-74
2021/01/04 07:14:10;;;;;;;5.00;2.85;;;;;;;18.12;48.59;101917.88;5042956;28;20052;-74
2021/01/04 07:17:11;;;;;;;5.75;2.40;;;;;;;18.15;48.63;101925.75;5055288;28;20086;-73
2021/01/04 07:19:46;;;;;;;3.70;2.20;;;;;;;18.18;48.24;101920.53;4956100;28;20498;-73
2021/01/04 07:22:23;;;;;;;4.07;2.00;;;;;;;18.14;48.51;101925.75;5031615;28;20039;-70
2021/01/04 07:25:25;;;;;;;3.88;2.33;;;;;;;18.20;48.39;101931.03;5040911;28;20028;-70
2021/01/04 07:27:58;;;;;;;4.00;2.33;;;;;;;18.18;48.15;101933.63;5041925;28;20365;-70
2021/01/04 07:30:49;;;;;;;6.20;2.55;;;;;;;18.14;48.45;101918.78;5023984;28;20022;-69
2021/01/04 07:33:38;;;;;;;6.10;2.28;;;;;;;18.14;48.42;101928.34;5031723;28;20025;-69
2021/01/04 07:36:14;;;;;;;4.47;2.45;;;;;;;18.11;48.70;101933.53;5050335;28;20047;-69
2021/01/04 07:39:18;;;;;;;4.47;2.83;;;;;;;18.06;48.79;101936.09;5028788;28;20029;-69
2021/01/04 07:42:23;;;;;;;4.13;2.80;;;;;;;18.03;48.72;101941.31;5044044;28;20464;-69
2021/01/04 07:45:06;;;;;;;;;;;;;;;18.00;48.95;101943.88;5040164;28;20028;-68
2021/01/04 07:48:14;;;;;;;5.13;2.35;;;;;;;17.98;48.94;101942.97;5030215;28;19919;-69
2021/01/04 07:50:58;;;;;;;3.63;1.90;;;;;;;17.95;48.84;101945.53;5038934;28;20108;-69
2021/01/04 07:53:48;;;;;;;4.82;1.90;;;;;;;17.96;49.04;101947.28;5044308;28;20119;-68
2021/01/04 07:56:23;;;;;;;6.90;2.20;;;;;;;17.97;48.93;101956.03;5044902;28;20052;-69
2021/01/04 07:59:14;;;;;;;3.72;2.00;;;;;;;18.02;49.00;101946.50;5047408;28;20025;-69
2021/01/04 08:02:14;;;;;;;4.28;1.70;;;;;;;18.13;48.46;101955.38;5043811;28;20059;-69
2021/01/04 08:05:08;;;;;;;4.88;2.40;;;;;;;18.09;48.64;101950.97;5051148;28;20067;-69
2021/01/04 08:08:09;;;;;;;2.75;1.77;;;;;;;18.16;48.78;101958.94;5048722;28;20070;-69
2021/01/04 08:11:03;;;;;;;4.20;2.00;;;;;;;18.17;48.88;101952.84;5056652;28;20501;-69
2021/01/04 08:13:53;;;;;;;3.25;1.70;;;;;;;18.13;48.99;101973.72;5054947;28;20064;-68
2021/01/04 08:16:26;;;;;;;2.80;1.80;;;;;;;18.18;49.05;101958.94;5059999;28;20448;-69
2021/01/04 08:18:56;;;;;;;2.70;1.70;;;;;;;18.17;48.86;101970.28;5050075;28;20032;-69
2021/01/04 08:21:52;;;;;;;2.28;1.65;;;;;;;18.15;49.18;101972.88;5047769;28;20437;-69
2021/01/04 08:24:37;;;;;;;3.28;1.80;;;;;;;18.22;48.95;101971.22;5048478;28;20075;-69
2021/01/04 08:27:37;;;;;;;2.90;1.58;;;;;;;18.21;48.89;101972.06;5048976;28;20033;-74
2021/01/04 08:30:11;;;;;;;3.15;1.85;;;;;;;18.16;49.36;101974.66;5059840;28;20036;-74
2021/01/04 08:32:56;;;;;;;4.07;2.00;;;;;;;18.24;49.01;101977.38;5055720;28;20036;-73
2021/01/04 08:35:27;;;;;;;3.88;1.48;;;;;;;18.25;49.02;101983.47;5041971;28;20033;-73
2021/01/04 08:37:54;;;;;;;4.00;1.98;;;;;;;18.18;48.90;101987.72;5056271;28;20028;-73
2021/01/04 08:40:34;;;;;;;2.13;1.48;;;;;;;18.26;49.01;101988.75;5055110;28;20029;-73
2021/01/04 08:43:05;;;;;;;2.25;1.30;;;;;;;18.27;48.91;101993.13;5047973;28;20476;-73
2021/01/04 08:45:35;;;;;;;3.97;2.47;;;;;;;18.18;49.45;101986.00;5062255;28;20086;-74
2021/01/04 08:48:21;;;;;;;2.80;1.88;;;;;;;18.24;49.00;101998.31;5055811;28;20091;-73
2021/01/04 08:51:06;;;;;;;2.67;1.52;;;;;;;18.28;49.11;101994.88;5053507;28;20383;-74
2021/01/04 08:53:32;;;;;;;3.25;1.55;;;;;;;18.21;49.16;102001.75;5058723;28;20023;-73
2021/01/04 08:56:22;;;;;;;2.03;1.40;;;;;;;18.15;49.64;101999.06;5053821;28;20033;-73
2021/01/04 08:58:49;;;;;;;4.07;1.80;;;;;;;18.11;49.63;102002.50;5052741;28;20092;-72
2021/01/04 09:01:14;;;;;;;3.47;1.42;;;;;;;18.13;49.71;102000.78;5032229;28;20037;-72
2021/01/04 09:03:40;;;;;;;2.03;1.23;;;;;;;18.21;49.31;102009.63;5028071;28;20083;-72
2021/01/04 09:06:24;;;;;;;2.28;1.38;;;;;;;18.23;49.26;102012.25;5015672;28;20071;-72
2021/01/04 09:08:55;;;;;;;2.15;1.02;;;;;;;18.20;49.43;102015.69;5031897;28;20025;-73
2021/01/04 09:11:21;;;;;;;4.05;1.50;;;;;;;18.24;49.32;102011.41;5022694;28;20072;-72
2021/01/04 09:13:48;;;;;;;3.03;1.50;;;;;;;18.26;49.15;102021.91;5014392;28;20029;-72
2021/01/04 09:16:26;;;;;;;2.50;1.63;;;;;;;18.25;49.31;102018.41;5033257;28;20100;-72
2021/01/04 09:19:04;;;;;;;3.45;1.80;;;;;;;18.30;48.99;102018.47;5017282;28;20029;-72
2021/01/04 09:21:41;;;;;;;2.58;1.38;;;;;;;18.43;48.69;102020.41;5007883;28;20396;-73
2021/01/04 09:24:06;;;;;;;2.72;1.48;;;;;;;18.45;48.61;102018.66;5013325;28;20028;-76
2021/01/04 09:26:38;;;;;;;2.15;1.40;;;;;;;18.39;49.09;102024.72;5013754;28;20770;-78
2021/01/04 09:29:10;;;;;;;1.40;0.88;;;;;;;18.46;49.27;102029.16;5018881;28;20483;-70
2021/01/04 09:31:35;;;;;;;2.05;1.30;;;;;;;18.48;48.87;102023.97;5015042;28;20456;-70
2021/01/04 09:34:00;;;;;;;1.95;1.20;;;;;;;18.38;49.48;102027.31;5023923;28;20071;-70
2021/01/04 09:36:26;;;;;;;1.98;1.15;;;;;;;18.44;49.16;102028.25;5031207;28;20064;-73
2021/01/04 09:39:05;;;;;;;3.30;1.80;;;;;;;18.43;49.39;102031.78;5013982;28;20026;-73
2021/01/04 09:41:31;;;;;;;2.63;1.48;;;;;;;18.38;49.83;102029.94;5032259;28;20464;-73
2021/01/04 09:44:12;;;;;;;1.23;0.93;;;;;;;18.44;49.46;102030.00;5030984;28;20034;-73
2021/01/04 09:46:49;;;;;;;1.70;1.17;;;;;;;18.40;49.78;102029.09;5012080;28;20060;-72
2021/01/04 09:49:22;;;;;;;1.75;1.23;;;;;;;18.33;50.36;102037.72;5023903;28;20028;-73
2021/01/04 09:52:05;;;;;;;2.75;1.50;;;;;;;18.40;49.50;102038.69;5022640;28;20030;-70
2021/01/04 09:54:53;;;;;;;2.22;1.45;;;;;;;18.43;50.34;102041.38;5014784;28;20029;-70
2021/01/04 09:57:20;;;;;;;1.52;1.20;;;;;;;18.37;50.54;102034.28;4997410;28;20030;-70
2021/01/04 09:59:47;;;;;;;1.95;1.50;;;;;;;18.30;50.49;102035.06;5007693;28;20053;-70
2021/01/04 10:02:32;;;;;;;3.80;1.20;;;;;;;18.24;50.65;102034.09;5049214;28;20456;-70
2021/01/04 10:05:12;;;;;;;2.55;1.15;;;;;;;18.18;50.96;102040.09;5051147;28;20033;-70
2021/01/04 10:07:41;;;;;;;3.33;1.60;;;;;;;18.14;50.99;102043.53;5050799;28;20024;-70
2021/01/04 10:10:11;;;;;;;2.33;1.45;;;;;;;18.13;51.41;102047.91;5048071;28;20394;-71
2021/01/04 10:12:37;;;;;;;2.75;1.15;;;;;;;18.10;51.17;102032.13;5061458;28;20068;-69
2021/01/04 10:15:07;;;;;;;2.58;1.40;;;;;;;18.10;51.11;102045.22;5033867;28;20022;-70
2021/01/04 10:17:41;;;;;;;2.10;1.38;;;;;;;18.09;51.46;102034.72;5060058;28;20380;-71
2021/01/04 10:20:21;;;;;;;2.08;1.20;;;;;;;18.05;51.48;102038.16;5044350;28;20029;-71
2021/01/04 10:22:50;;;;;;;2.45;1.45;;;;;;;18.05;51.50;102043.38;5055444;28;20074;-71
2021/01/04 10:25:26;;;;;;;3.65;1.40;;;;;;;18.02;51.53;102030.28;5050222;28;20083;-70
2021/01/04 10:27:54;;;;;;;1.92;1.20;;;;;;;18.01;51.70;102041.59;5068199;28;20105;-71
2021/01/04 10:30:22;;;;;;;3.08;1.40;;;;;;;17.98;51.83;102042.41;5047746;28;20036;-69
2021/01/04 10:32:47;;;;;;;1.83;1.50;;;;;;;17.99;51.94;102038.06;5054721;28;20074;-72
2021/01/04 10:35:22;;;;;;;2.05;1.05;;;;;;;17.96;51.81;102038.88;5046815;28;20037;-72
2021/01/04 10:37:51;;;;;;;2.30;1.00;;;;;;;17.93;51.91;102044.06;5038170;28;20029;-72
2021/01/04 10:40:21;;;;;;;2.00;1.35;;;;;;;17.94;51.81;102043.22;5049707;28;20021;-71
2021/01/04 10:42:58;;;;;;;2.35;1.30;;;;;;;17.93;51.95;102040.56;5050877;28;20116;-71
2021/01/04 10:45:33;;;;;;;2.10;1.63;;;;;;;17.87;51.78;102038.75;5045504;28;20337;-71
2021/01/04 10:48:16;;;;;;;3.38;1.35;;;;;;;17.91;51.77;102040.56;5043473;28;20468;-72
2021/01/04 10:50:46;;;;;;;1.83;1.00;;;;;;;17.91;51.82;102039.69;5050845;28;20108;-71
2021/01/04 10:53:25;;;;;;;1.83;1.10;;;;;;;17.84;52.09;102036.94;5054718;28;20062;-71
2021/01/04 10:56:16;;;;;;;2.42;1.60;;;;;;;17.88;51.88;102042.25;5048957;28;20075;-74
2021/01/04 10:58:48;;;;;;;1.50;1.00;;;;;;;17.86;52.17;102042.22;5035387;28;20037;-72
2021/01/04 11:01:19;;;;;;;2.50;1.15;;;;;;;17.85;52.15;102037.84;5031730;28;20034;-74
2021/01/04 11:04:08;;;;;;;3.42;1.60;;;;;;;17.84;52.10;102043.91;5012100;28;20018;-72
2021/01/04 11:06:37;;;;;;;2.35;1.15;;;;;;;17.80;51.78;102029.00;5008209;28;20755;-72
2021/01/04 11:09:20;;;;;;;2.10;1.25;;;;;;;17.80;51.82;102024.66;5013091;28;20038;-72
2021/01/04 11:11:51;;;;;;;3.38;1.33;;;;;;;17.82;51.82;102037.78;5015697;28;20032;-72
2021/01/04 11:14:23;;;;;;;1.75;0.98;;;;;;;17.80;52.15;102032.50;4997003;28;20037;-72
2021/01/04 11:16:57;;;;;;;1.67;1.02;;;;;;;17.79;52.02;102030.75;5018746;28;20034;-72
2021/01/04 11:19:31;;;;;;;1.80;1.17;;;;;;;17.79;51.98;102029.88;5030410;28;20037;-72
2021/01/04 11:22:15;;;;;;;1.67;1.00;;;;;;;17.75;51.85;102015.00;5035967;28;20033;-72
2021/01/04 11:24:41;;;;;;;1.80;1.38;;;;;;;17.80;51.91;102021.16;5022932;28;20108;-72
2021/01/04 11:27:07;;;;;;;1.90;1.10;;;;;;;17.79;51.92;102014.16;5017117;28;20068;-74
2021/01/04 11:29:33;;;;;;;1.48;0.93;;;;;;;17.79;51.69;102022.00;5017783;28;20106;-72
2021/01/04 11:31:59;;;;;;;2.33;1.80;;;;;;;17.75;51.96;102012.38;5021819;28;20026;-74
2021/01/04 11:34:24;;;;;;;3.25;1.52;;;;;;;17.77;52.25;102023.75;5013077;28;20029;-74
2021/01/04 11:36:50;;;;;;;2.00;1.58;;;;;;;17.75;52.01;102009.75;5045698;28;20032;-74
2021/01/04 11:39:16;;;;;;;2.45;1.45;;;;;;;17.75;51.83;102015.88;5054516;28;20415;-74
2021/01/04 11:41:44;;;;;;;2.15;1.35;;;;;;;17.71;51.81;102003.59;5039168;28;20029;-74
2021/01/04 11:44:11;;;;;;;1.48;1.20;;;;;;;17.73;51.77;102008.84;4999352;28;20502;-74
2021/01/04 11:46:36;;;;;;;1.58;1.10;;;;;;;17.70;51.85;101995.72;4996669;28;20041;-71
2021/01/04 11:49:03;;;;;;;1.85;1.13;;;;;;;17.70;51.88;102004.44;5030427;28;20041;-72
2021/01/04 11:51:29;;;;;;;1.75;1.20;;;;;;;17.68;51.66;101989.56;4986331;28;20037;-72
2021/01/04 11:53:54;;;;;;;1.92;1.20;;;;;;;17.69;51.94;101993.94;4974489;28;20384;-72
2021/01/04 11:56:22;;;;;;;2.63;1.30;;;;;;;17.73;51.66;101998.38;5015177;28;20037;-71
2021/01/04 11:58:48;;;;;;;1.67;1.10;;;;;;;17.73;51.93;101995.78;5015555;28;20021;-71
2021/01/04 12:01:14;;;;;;;1.95;1.27;;;;;;;17.72;51.71;102000.13;5038759;28;20091;-71
2021/01/04 12:03:40;;;;;;;1.80;1.20;;;;;;;17.72;51.74;101997.50;5045396;28;20373;-72
2021/01/04 12:06:07;;;;;;;1.80;1.27;;;;;;;17.69;51.36;101986.97;5044816;28;20040;-74
2021/01/04 12:08:32;;;;;;;1.50;1.08;;;;;;;17.71;51.58;101994.84;5051082;28;20048;-74
2021/01/04 12:10:58;;;;;;;1.60;1.00;;;;;;;17.71;51.54;101994.84;5057672;28;20440;-74
2021/01/04 12:13:24;;;;;;;1.77;1.27;;;;;;;17.71;51.67;101997.47;5052757;28;20029;-74